createdAt,value
2022-09-01T00:01:20.036Z,97499.00
2022-09-01T00:06:23.337Z,97498.00
2022-09-01T00:11:26.322Z,97487.00
2022-09-01T00:16:30.215Z,97487.00
2022-09-01T00:21:39.091Z,97487.00
2022-09-01T00:26:40.601Z,97487.00
2022-09-01T00:31:42.847Z,97493.00
2022-09-01T00:36:43.957Z,97491.00
2022-09-01T00:41:46.487Z,97488.00
2022-09-01T00:46:51.078Z,97482.00
2022-09-01T00:52:04.621Z,97479.00
2022-09-01T00:57:07.783Z,97483.00
2022-09-01T01:02:10.599Z,97480.00
2022-09-01T01:07:12.571Z,97477.00
2022-09-01T01:12:17.502Z,97466.00
2022-09-01T01:17:20.902Z,97470.00
2022-09-01T01:22:49.386Z,97461.00
2022-09-01T01:27:51.382Z,97463.00
2022-09-01T01:32:54.686Z,97461.00
2022-09-01T01:37:56.293Z,97459.00
2022-09-01T01:42:58.174Z,97460.00
2022-09-01T01:48:00.920Z,97459.00
2022-09-01T01:53:11.523Z,97462.00
2022-09-01T01:58:14.715Z,97461.00
2022-09-01T02:03:21.188Z,97472.00
2022-09-01T02:08:25.160Z,97472.00
2022-09-01T02:13:30.124Z,97468.00
2022-09-01T02:18:35.516Z,97471.00
2022-09-01T02:23:38.215Z,97470.00
2022-09-01T02:28:41.861Z,97464.00
2022-09-01T02:33:46.322Z,97467.00
2022-09-01T02:38:53.271Z,97456.00
2022-09-01T02:43:54.849Z,97463.00
2022-09-01T02:48:56.903Z,97455.00
2022-09-01T02:53:57.798Z,97454.00
2022-09-01T02:59:00.967Z,97444.00
2022-09-01T03:04:08.204Z,97441.00
2022-09-01T03:09:14.579Z,97444.00
2022-09-01T03:14:16.655Z,97441.00
2022-09-01T03:19:18.290Z,97438.00
2022-09-01T03:24:21.338Z,97437.00
2022-09-01T03:29:22.807Z,97444.00
2022-09-01T03:34:23.985Z,97440.00
2022-09-01T03:39:27.088Z,97439.00
2022-09-01T03:44:28.322Z,97444.00
2022-09-01T03:49:29.237Z,97436.00
2022-09-01T03:54:32.283Z,97437.00
2022-09-01T03:59:33.130Z,97425.00
2022-09-01T04:04:34.016Z,97432.00
2022-09-01T04:09:35.814Z,97431.00
2022-09-01T04:14:36.684Z,97443.00
2022-09-01T04:19:38.671Z,97432.00
2022-09-01T04:24:44.934Z,97438.00
2022-09-01T04:29:47.112Z,97433.00
2022-09-01T04:34:48.000Z,97432.00
2022-09-01T04:39:56.678Z,97429.00
2022-09-01T04:45:05.086Z,97429.00
2022-09-01T04:50:16.835Z,97424.00
2022-09-01T04:55:30.202Z,97433.00
2022-09-01T05:00:32.082Z,97431.00
2022-09-01T05:05:42.367Z,97433.00
2022-09-01T05:10:46.179Z,97439.00
2022-09-01T05:16:03.568Z,97438.00
2022-09-01T05:21:10.543Z,97443.00
2022-09-01T05:26:18.291Z,97435.00
2022-09-01T05:31:21.307Z,97435.00
2022-09-01T05:36:23.415Z,97424.00
2022-09-01T05:41:26.375Z,97420.00
2022-09-01T05:46:29.080Z,97430.00
2022-09-01T05:51:45.635Z,97431.00
2022-09-01T05:56:49.222Z,97430.00
2022-09-01T06:01:55.903Z,97431.00
2022-09-01T06:07:05.954Z,97429.00
2022-09-01T06:12:16.511Z,97438.00
2022-09-01T06:17:22.436Z,97440.00
2022-09-01T06:22:27.200Z,97438.00
2022-09-01T06:27:28.557Z,97440.00
2022-09-01T06:32:29.550Z,97441.00
2022-09-01T06:37:31.032Z,97444.00
2022-09-01T06:42:35.355Z,97454.00
2022-09-01T06:47:36.495Z,97452.00
2022-09-01T06:58:14.711Z,97446.00
2022-09-01T07:03:23.109Z,97448.00
2022-09-01T07:16:32.150Z,97448.00
2022-09-01T07:21:40.847Z,97463.00
2022-09-01T07:26:49.933Z,97470.00
2022-09-01T07:54:29.682Z,97483.00
2022-09-01T07:59:32.705Z,97486.00
2022-09-01T08:04:39.136Z,97483.00
2022-09-01T08:09:44.213Z,97491.00
2022-09-01T08:14:46.783Z,97489.00
2022-09-01T08:19:47.949Z,97500.00
2022-09-01T08:24:57.258Z,97493.00
2022-09-01T08:29:59.553Z,97500.00
2022-09-01T08:35:01.412Z,97500.00
2022-09-01T08:40:05.616Z,97505.00
2022-09-01T08:45:23.065Z,97500.00
2022-09-01T08:50:24.761Z,97506.00
2022-09-01T08:55:49.530Z,97504.00
2022-09-01T09:01:03.383Z,97508.00
2022-09-01T09:13:02.380Z,97504.00
2022-09-01T09:18:38.920Z,97501.00
2022-09-01T09:23:50.064Z,97509.00
2022-09-01T09:28:51.027Z,97505.00
2022-09-01T09:33:53.711Z,97502.00
2022-09-01T09:39:16.642Z,97498.00
2022-09-01T09:44:31.252Z,97492.00
2022-09-01T09:49:41.415Z,97482.00
2022-09-01T09:55:05.047Z,97489.00
2022-09-01T10:00:23.891Z,97492.00
2022-09-01T10:05:39.191Z,97485.00
2022-09-01T10:10:56.472Z,97476.00
2022-09-01T10:16:05.699Z,97477.00
2022-09-01T10:21:23.279Z,97477.00
2022-09-01T10:26:38.277Z,97473.00
2022-09-01T10:31:41.793Z,97470.00
2022-09-01T10:36:47.053Z,97475.00
2022-09-01T10:42:06.667Z,97462.00
2022-09-01T10:47:29.740Z,97466.00
2022-09-01T10:55:24.479Z,97455.00
2022-09-01T11:07:16.581Z,97440.00
2022-09-01T11:12:42.894Z,97443.00
2022-09-01T11:18:26.138Z,97450.00
2022-09-01T11:23:30.481Z,97453.00
2022-09-01T11:28:39.482Z,97441.00
2022-09-01T11:33:50.992Z,97443.00
2022-09-01T11:39:39.439Z,97434.00
2022-09-01T11:47:26.400Z,97441.00
2022-09-01T11:52:30.819Z,97439.00
2022-09-01T11:57:35.159Z,97442.00
2022-09-01T12:02:46.433Z,97423.00
2022-09-01T12:07:47.543Z,97429.00
2022-09-01T12:12:48.582Z,97420.00
2022-09-01T12:17:50.741Z,97422.00
2022-09-01T12:22:51.940Z,97419.00
2022-09-01T12:27:52.820Z,97402.00
2022-09-01T12:33:22.747Z,97404.00
2022-09-01T12:38:27.897Z,97408.00
2022-09-01T12:43:39.446Z,97394.00
2022-09-01T12:48:41.220Z,97398.00
2022-09-01T12:53:52.319Z,97394.00
2022-09-01T12:59:05.507Z,97400.00
2022-09-01T13:04:22.474Z,97401.00
2022-09-01T13:09:23.423Z,97383.00
2022-09-01T13:14:24.912Z,97388.00
2022-09-01T13:19:28.792Z,97387.00
2022-09-01T13:24:32.057Z,97376.00
2022-09-01T13:29:33.422Z,97373.00
2022-09-01T13:34:34.814Z,97369.00
2022-09-01T13:39:36.377Z,97367.00
2022-09-01T13:44:38.192Z,97362.00
2022-09-01T13:49:44.584Z,97352.00
2022-09-01T13:55:09.247Z,97357.00
2022-09-01T14:00:14.899Z,97356.00
2022-09-01T14:05:18.422Z,97349.00
2022-09-01T14:10:21.601Z,97354.00
2022-09-01T14:15:27.112Z,97339.00
2022-09-01T14:20:36.805Z,97349.00
2022-09-01T14:25:43.348Z,97349.00
2022-09-01T14:30:44.583Z,97334.00
2022-09-01T14:35:47.440Z,97338.00
2022-09-01T14:40:48.477Z,97337.00
2022-09-01T14:45:49.768Z,97326.00
2022-09-01T14:50:51.039Z,97321.00
2022-09-01T14:55:55.647Z,97336.00
2022-09-01T15:01:11.899Z,97316.00
2022-09-01T15:06:20.695Z,97310.00
2022-09-01T15:11:21.604Z,97318.00
2022-09-01T15:16:27.501Z,97312.00
2022-09-01T15:21:31.265Z,97311.00
2022-09-01T15:26:32.734Z,97304.00
2022-09-01T15:31:33.722Z,97302.00
2022-09-01T15:36:38.949Z,97296.00
2022-09-01T15:41:39.830Z,97306.00
2022-09-01T15:46:42.281Z,97294.00
2022-09-01T15:51:44.327Z,97290.00
2022-09-01T15:56:47.048Z,97299.00
2022-09-01T16:01:47.958Z,97291.00
2022-09-01T16:06:50.375Z,97287.00
2022-09-01T16:11:52.411Z,97291.00
2022-09-01T16:17:12.378Z,97285.00
2022-09-01T16:22:33.307Z,97283.00
2022-09-01T16:27:40.480Z,97282.00
2022-09-01T16:32:45.352Z,97280.00
2022-09-01T16:43:11.114Z,97267.00
2022-09-01T16:48:43.340Z,97260.00
2022-09-01T16:55:36.191Z,97262.00
2022-09-01T17:01:24.697Z,97252.00
2022-09-01T17:06:32.269Z,97253.00
2022-09-01T17:11:48.983Z,97253.00
2022-09-01T17:16:54.009Z,97254.00
2022-09-01T17:22:14.222Z,97247.00
2022-09-01T17:27:47.754Z,97255.00
2022-09-01T17:33:13.044Z,97248.00
2022-09-01T17:38:53.368Z,97251.00
2022-09-01T17:44:47.319Z,97250.00
2022-09-01T17:50:15.504Z,97253.00
2022-09-01T17:55:40.253Z,97249.00
2022-09-01T18:01:08.999Z,97252.00
2022-09-01T18:06:21.037Z,97252.00
2022-09-01T18:11:46.272Z,97249.00
2022-09-01T18:17:54.334Z,97253.00
2022-09-01T18:23:04.281Z,97259.00
2022-09-01T18:28:05.384Z,97259.00
2022-09-01T18:33:44.104Z,97265.00
2022-09-01T18:41:27.954Z,97271.00
2022-09-01T18:47:01.083Z,97276.00
2022-09-01T18:52:18.384Z,97284.00
2022-09-01T18:57:27.941Z,97288.00
2022-09-01T19:03:06.302Z,97285.00
2022-09-01T19:08:40.431Z,97293.00
2022-09-01T19:14:08.961Z,97291.00
2022-09-01T19:19:31.205Z,97289.00
2022-09-01T19:24:37.504Z,97291.00
2022-09-01T19:29:52.426Z,97282.00
2022-09-01T19:34:57.807Z,97291.00
2022-09-01T19:40:00.161Z,97286.00
2022-09-01T19:48:18.483Z,97293.00
2022-09-01T19:55:31.470Z,97298.00
2022-09-01T20:00:50.909Z,97293.00
2022-09-01T20:06:09.128Z,97294.00
2022-09-01T20:11:21.917Z,97294.00
2022-09-01T20:16:34.493Z,97295.00
2022-09-01T20:21:39.863Z,97288.00
2022-09-01T20:26:55.688Z,97301.00
2022-09-01T20:31:58.461Z,97296.00
2022-09-01T20:37:08.199Z,97300.00
2022-09-01T20:42:30.462Z,97303.00
2022-09-01T20:47:31.601Z,97306.00
2022-09-01T20:52:55.287Z,97306.00
2022-09-01T20:59:05.998Z,97306.00
2022-09-01T21:06:09.564Z,97308.00
2022-09-01T21:11:39.102Z,97308.00
2022-09-01T21:17:17.173Z,97297.00
2022-09-01T21:22:22.110Z,97299.00
2022-09-01T21:27:32.396Z,97292.00
2022-09-01T21:32:34.142Z,97290.00
2022-09-01T21:37:35.098Z,97291.00
2022-09-01T21:42:44.955Z,97287.00
2022-09-01T21:47:47.838Z,97286.00
2022-09-01T21:52:49.078Z,97284.00
2022-09-01T21:57:51.482Z,97282.00
2022-09-01T22:02:53.091Z,97289.00
2022-09-01T22:07:57.642Z,97285.00
2022-09-01T22:13:03.091Z,97274.00
2022-09-01T22:18:04.527Z,97275.00
2022-09-01T22:23:06.836Z,97266.00
2022-09-01T22:28:08.765Z,97269.00
2022-09-01T22:33:10.330Z,97272.00
2022-09-01T22:38:11.781Z,97273.00
2022-09-01T22:43:16.931Z,97272.00
2022-09-01T22:48:20.444Z,97270.00
2022-09-01T22:53:22.529Z,97271.00
2022-09-01T22:58:23.913Z,97268.00
2022-09-01T23:03:24.746Z,97268.00
2022-09-01T23:08:25.621Z,97266.00
2022-09-01T23:13:27.625Z,97275.00
2022-09-01T23:18:30.973Z,97274.00
2022-09-01T23:23:32.021Z,97265.00
2022-09-01T23:28:33.283Z,97265.00
2022-09-01T23:33:34.148Z,97261.00
2022-09-01T23:38:36.410Z,97254.00
2022-09-01T23:43:37.842Z,97260.00
2022-09-01T23:48:38.850Z,97262.00
2022-09-01T23:53:39.717Z,97260.00
2022-09-01T23:58:41.167Z,97252.00
